createdAt,value
2019-04-06T00:00:54.895Z,974.43
2019-04-06T00:01:54.818Z,974.45
2019-04-06T00:02:54.763Z,974.45
2019-04-06T00:03:54.689Z,974.46
2019-04-06T00:04:54.597Z,974.50
2019-04-06T00:05:54.563Z,974.49
2019-04-06T00:06:54.451Z,974.52
2019-04-06T00:07:54.399Z,974.52
2019-04-06T00:08:54.308Z,974.52
2019-04-06T00:09:54.243Z,974.54
2019-04-06T00:10:55.286Z,974.51
2019-04-06T00:11:54.099Z,974.46
2019-04-06T00:12:54.014Z,974.48
2019-04-06T00:13:53.940Z,974.46
2019-04-06T00:14:53.862Z,974.44
2019-04-06T00:15:53.788Z,974.43
2019-04-06T00:16:53.735Z,974.42
2019-04-06T00:17:53.657Z,974.40
2019-04-06T00:18:53.570Z,974.37
2019-04-06T00:19:53.494Z,974.40
2019-04-06T00:20:53.432Z,974.36
2019-04-06T00:21:53.365Z,974.31
2019-04-06T00:22:53.287Z,974.27
2019-04-06T00:23:53.208Z,974.24
2019-04-06T00:24:53.128Z,974.24
2019-04-06T00:25:53.064Z,974.23
2019-04-06T00:26:52.997Z,974.24
2019-04-06T00:27:52.914Z,974.25
2019-04-06T00:28:52.830Z,974.27
2019-04-06T00:29:52.761Z,974.25
2019-04-06T00:30:52.688Z,974.23
2019-04-06T00:31:52.657Z,974.22
2019-04-06T00:32:52.546Z,974.25
2019-04-06T00:33:52.527Z,974.28
2019-04-06T00:34:52.452Z,974.26
2019-04-06T00:35:52.323Z,974.26
2019-04-06T00:36:52.260Z,974.26
2019-04-06T00:37:52.184Z,974.26
2019-04-06T00:38:52.116Z,974.26
2019-04-06T00:39:52.036Z,974.33
2019-04-06T00:40:52.019Z,974.25
2019-04-06T00:41:51.879Z,974.25
2019-04-06T00:42:51.832Z,974.25
2019-04-06T00:43:51.761Z,974.32
2019-04-06T00:44:51.670Z,974.33
2019-04-06T00:45:51.599Z,974.32
2019-04-06T00:46:51.524Z,974.35
2019-04-06T00:47:51.459Z,974.36
2019-04-06T00:48:51.369Z,974.35
2019-04-06T00:49:51.292Z,974.30
2019-04-06T00:50:51.233Z,974.31
2019-04-06T00:51:51.157Z,974.28
2019-04-06T00:52:51.075Z,974.29
2019-04-06T00:53:51.004Z,974.30
2019-04-06T00:54:50.927Z,974.28
2019-04-06T00:55:55.976Z,974.26
2019-04-06T00:56:50.792Z,974.25
2019-04-06T00:57:50.728Z,974.21
2019-04-06T00:58:50.645Z,974.21
2019-04-06T00:59:50.577Z,974.21
2019-04-06T01:00:50.535Z,974.26
2019-04-06T01:01:50.417Z,974.23
2019-04-06T01:02:50.344Z,974.20
2019-04-06T01:03:50.278Z,974.19
2019-04-06T01:04:50.204Z,974.21
2019-04-06T01:05:50.202Z,974.18
2019-04-06T01:06:50.056Z,974.21
2019-04-06T01:07:49.983Z,974.20
2019-04-06T01:08:49.917Z,974.19
2019-04-06T01:09:49.847Z,974.20
2019-04-06T01:10:49.772Z,974.18
2019-04-06T01:11:49.698Z,974.20
2019-04-06T01:12:49.617Z,974.23
2019-04-06T01:13:49.541Z,974.23
2019-04-06T01:14:49.472Z,974.19
2019-04-06T01:15:49.397Z,974.18
2019-04-06T01:16:49.333Z,974.16
2019-04-06T01:17:49.258Z,974.18
2019-04-06T01:18:49.194Z,974.18
2019-04-06T01:19:49.121Z,974.22
2019-04-06T01:20:49.035Z,974.17
2019-04-06T01:21:48.959Z,974.13
2019-04-06T01:22:48.907Z,974.10
2019-04-06T01:23:48.826Z,974.12
2019-04-06T01:24:48.841Z,974.06
2019-04-06T01:25:48.669Z,974.11
2019-04-06T01:26:48.597Z,974.12
2019-04-06T01:27:48.524Z,974.12
2019-04-06T01:28:48.459Z,974.09
2019-04-06T01:29:48.386Z,974.03
2019-04-06T01:30:48.343Z,974.03
2019-04-06T01:31:48.235Z,974.05
2019-04-06T01:32:48.205Z,974.03
2019-04-06T01:33:48.101Z,974.05
2019-04-06T01:34:48.025Z,974.00
2019-04-06T01:35:47.954Z,974.01
2019-04-06T01:36:47.870Z,973.98
2019-04-06T01:37:47.795Z,973.98
2019-04-06T01:38:47.735Z,973.99
2019-04-06T01:39:47.660Z,973.94
2019-04-06T01:40:47.573Z,973.97
2019-04-06T01:41:47.505Z,973.92
2019-04-06T01:42:47.429Z,973.97
2019-04-06T01:43:47.363Z,973.93
2019-04-06T01:44:47.296Z,973.93
2019-04-06T01:45:47.221Z,973.92
2019-04-06T01:46:47.151Z,973.95
2019-04-06T01:47:47.073Z,973.93
2019-04-06T01:48:46.993Z,973.92
2019-04-06T01:49:46.917Z,973.90
2019-04-06T01:50:46.845Z,973.92
2019-04-06T01:51:46.776Z,973.87
2019-04-06T01:52:46.710Z,973.93
2019-04-06T01:53:46.636Z,973.90
2019-04-06T01:54:46.604Z,974.00
2019-04-06T01:55:46.481Z,973.93
2019-04-06T01:56:46.417Z,973.93
2019-04-06T01:57:46.359Z,973.94
2019-04-06T01:58:46.385Z,973.87
2019-04-06T01:59:46.200Z,973.89
2019-04-06T02:00:46.118Z,973.95
2019-04-06T02:01:46.043Z,973.91
2019-04-06T02:02:46.024Z,973.96
2019-04-06T02:03:45.915Z,973.88
2019-04-06T02:04:45.825Z,973.90
2019-04-06T02:05:45.751Z,973.94
2019-04-06T02:06:45.679Z,973.84
2019-04-06T02:07:45.610Z,973.94
2019-04-06T02:08:45.540Z,973.92
2019-04-06T02:09:45.470Z,973.92
2019-04-06T02:10:45.392Z,973.88
2019-04-06T02:11:45.315Z,973.99
2019-04-06T02:12:45.247Z,973.98
2019-04-06T02:13:45.171Z,973.98
2019-04-06T02:14:45.099Z,973.98
2019-04-06T02:15:45.032Z,974.00
2019-04-06T02:16:44.941Z,973.96
2019-04-06T02:17:44.867Z,973.93
2019-04-06T02:18:44.799Z,973.99
2019-04-06T02:19:44.723Z,974.00
2019-04-06T02:20:44.656Z,973.99
2019-04-06T02:21:44.588Z,973.97
2019-04-06T02:22:44.514Z,973.96
2019-04-06T02:23:44.439Z,974.04
2019-04-06T02:24:44.355Z,974.02
2019-04-06T02:25:44.285Z,973.98
2019-04-06T02:26:44.222Z,974.02
2019-04-06T02:27:44.178Z,974.03
2019-04-06T02:28:44.076Z,973.93
2019-04-06T02:29:43.993Z,973.97
2019-04-06T02:30:43.918Z,974.03
2019-04-06T02:31:43.849Z,973.95
2019-04-06T02:32:43.783Z,973.98
2019-04-06T02:33:43.740Z,973.95
2019-04-06T02:34:43.624Z,973.94
2019-04-06T02:35:43.553Z,973.98
2019-04-06T02:36:43.507Z,973.95
2019-04-06T02:37:43.417Z,973.91
2019-04-06T02:38:43.348Z,973.96
2019-04-06T02:39:43.277Z,973.96
2019-04-06T02:40:43.312Z,973.99
2019-04-06T02:41:43.124Z,974.02
2019-04-06T02:42:43.051Z,974.02
2019-04-06T02:43:42.982Z,974.04
2019-04-06T02:44:42.897Z,974.00
2019-04-06T02:45:42.831Z,973.94
2019-04-06T02:46:42.755Z,974.04
2019-04-06T02:47:42.796Z,974.01
2019-04-06T02:48:42.611Z,974.04
2019-04-06T02:49:42.544Z,974.07
2019-04-06T02:50:42.467Z,974.02
2019-04-06T02:51:42.390Z,974.04
2019-04-06T02:52:42.326Z,974.06
2019-04-06T02:53:42.235Z,974.05
2019-04-06T02:54:42.171Z,974.04
2019-04-06T02:55:42.093Z,973.97
2019-04-06T02:56:46.271Z,974.03
2019-04-06T02:57:41.956Z,974.04
2019-04-06T02:58:41.892Z,974.01
2019-04-06T02:59:41.805Z,974.00
2019-04-06T03:00:41.735Z,974.01
2019-04-06T03:01:41.733Z,974.05
2019-04-06T03:02:41.587Z,974.01
2019-04-06T03:03:41.591Z,973.96
2019-04-06T03:04:41.432Z,973.98
2019-04-06T03:05:41.373Z,973.97
2019-04-06T03:06:41.293Z,974.00
2019-04-06T03:07:41.323Z,974.03
2019-04-06T03:08:41.367Z,974.03
2019-04-06T03:09:41.080Z,974.00
2019-04-06T03:10:41.064Z,974.03
2019-04-06T03:11:40.929Z,973.96
2019-04-06T03:12:40.850Z,974.04
2019-04-06T03:13:40.773Z,974.08
2019-04-06T03:14:44.041Z,973.99
2019-04-06T03:15:40.650Z,974.00
2019-04-06T03:16:40.656Z,973.95
2019-04-06T03:17:40.530Z,974.00
2019-04-06T03:18:40.418Z,973.97
2019-04-06T03:19:40.336Z,974.00
2019-04-06T03:20:40.276Z,974.04
2019-04-06T03:21:40.260Z,974.00
2019-04-06T03:22:40.126Z,973.97
2019-04-06T03:23:50.533Z,974.01
2019-04-06T03:24:40.237Z,973.98
2019-04-06T03:25:39.920Z,974.01
2019-04-06T03:26:39.977Z,973.98
2019-04-06T03:27:39.757Z,974.01
2019-04-06T03:28:39.688Z,973.99
2019-04-06T03:29:39.615Z,974.01
2019-04-06T03:30:39.530Z,974.01
2019-04-06T03:31:39.529Z,974.04
2019-04-06T03:32:39.505Z,973.99
2019-04-06T03:33:39.352Z,973.98
2019-04-06T03:34:39.275Z,974.00
2019-04-06T03:35:45.974Z,973.97
2019-04-06T03:36:39.093Z,973.98
2019-04-06T03:37:39.020Z,974.02
2019-04-06T03:38:38.959Z,973.99
2019-04-06T03:39:39.054Z,973.99
2019-04-06T03:40:38.806Z,974.04
2019-04-06T03:41:38.723Z,974.00
2019-04-06T03:42:38.654Z,974.01
2019-04-06T03:43:38.580Z,974.03
2019-04-06T03:44:38.729Z,974.09
2019-04-06T03:45:38.446Z,974.04
2019-04-06T03:46:38.418Z,974.09
2019-04-06T03:47:38.316Z,974.09
2019-04-06T03:48:38.224Z,974.11
2019-04-06T03:49:38.154Z,974.15
2019-04-06T03:50:38.076Z,974.16
2019-04-06T03:51:37.997Z,974.18
2019-04-06T03:52:37.920Z,974.19
2019-04-06T03:53:37.960Z,974.17
2019-04-06T03:54:37.775Z,974.14
2019-04-06T03:55:37.873Z,974.15
2019-04-06T03:56:37.638Z,974.16
2019-04-06T03:57:37.569Z,974.13
2019-04-06T03:58:37.535Z,974.16
2019-04-06T03:59:37.429Z,974.13
2019-04-06T04:00:37.334Z,974.15
2019-04-06T04:01:37.306Z,974.12
2019-04-06T04:02:37.343Z,974.12
2019-04-06T04:03:37.115Z,974.15
2019-04-06T04:04:37.045Z,974.15
2019-04-06T04:05:37.117Z,974.14
2019-04-06T04:06:36.896Z,974.13
2019-04-06T04:07:36.837Z,974.17
2019-04-06T04:08:36.763Z,974.09
2019-04-06T04:09:36.690Z,974.14
2019-04-06T04:10:36.614Z,974.17
2019-04-06T04:11:36.528Z,974.15
2019-04-06T04:12:36.453Z,974.21
2019-04-06T04:13:36.740Z,974.18
2019-04-06T04:14:36.316Z,974.21
2019-04-06T04:15:36.254Z,974.20
2019-04-06T04:16:36.396Z,974.16
2019-04-06T04:17:36.097Z,974.24
2019-04-06T04:18:36.016Z,974.23
2019-04-06T04:19:35.953Z,974.18
2019-04-06T04:20:35.889Z,974.18
2019-04-06T04:21:35.830Z,974.22
2019-04-06T04:22:35.739Z,974.19
2019-04-06T04:23:35.652Z,974.23
2019-04-06T04:24:35.578Z,974.21
2019-04-06T04:25:35.621Z,974.26
2019-04-06T04:26:35.435Z,974.23
2019-04-06T04:27:35.443Z,974.27
2019-04-06T04:28:35.305Z,974.25
2019-04-06T04:29:35.241Z,974.29
2019-04-06T04:30:35.293Z,974.27
2019-04-06T04:31:35.071Z,974.32
2019-04-06T04:32:34.996Z,974.29
2019-04-06T04:33:34.939Z,974.30
2019-04-06T04:34:34.857Z,974.30
2019-04-06T04:35:34.776Z,974.27
2019-04-06T04:36:34.773Z,974.29
2019-04-06T04:37:34.631Z,974.31
2019-04-06T04:38:34.557Z,974.32
2019-04-06T04:39:34.606Z,974.34
2019-04-06T04:40:34.498Z,974.34
2019-04-06T04:41:34.340Z,974.35
2019-04-06T04:42:34.405Z,974.36
2019-04-06T04:43:34.504Z,974.38
2019-04-06T04:44:34.135Z,974.37
2019-04-06T04:45:34.074Z,974.42
2019-04-06T04:46:34.169Z,974.39
2019-04-06T04:47:33.903Z,974.38
2019-04-06T04:48:33.828Z,974.43
2019-04-06T04:49:33.766Z,974.46
2019-04-06T04:50:33.695Z,974.41
2019-04-06T04:51:33.606Z,974.47
2019-04-06T04:52:33.530Z,974.47
2019-04-06T04:53:33.460Z,974.45
2019-04-06T04:54:33.393Z,974.46
2019-04-06T04:55:33.389Z,974.50
2019-04-06T04:56:33.254Z,974.48
2019-04-06T04:57:40.091Z,974.48
2019-04-06T04:58:33.108Z,974.47
2019-04-06T04:59:33.021Z,974.47
2019-04-06T05:00:32.952Z,974.48
2019-04-06T05:01:32.885Z,974.47
2019-04-06T05:02:32.853Z,974.48
2019-04-06T05:03:32.749Z,974.55
2019-04-06T05:04:32.667Z,974.52
2019-04-06T05:05:32.581Z,974.55
2019-04-06T05:06:32.513Z,974.55
2019-04-06T05:07:32.452Z,974.55
2019-04-06T05:08:32.372Z,974.57
2019-04-06T05:09:32.460Z,974.61
2019-04-06T05:10:32.234Z,974.61
2019-04-06T05:11:32.145Z,974.60
2019-04-06T05:12:32.073Z,974.61
2019-04-06T05:13:31.997Z,974.61
2019-04-06T05:14:31.930Z,974.64
2019-04-06T05:15:31.875Z,974.60
2019-04-06T05:16:31.790Z,974.64
2019-04-06T05:17:31.723Z,974.64
2019-04-06T05:18:31.649Z,974.64
2019-04-06T05:19:31.558Z,974.66
2019-04-06T05:20:31.489Z,974.63
2019-04-06T05:21:31.430Z,974.66
2019-04-06T05:22:31.514Z,974.71
2019-04-06T05:23:31.273Z,974.67
2019-04-06T05:24:31.199Z,974.66
2019-04-06T05:25:31.125Z,974.71
2019-04-06T05:26:37.489Z,974.72
2019-04-06T05:27:30.990Z,974.71
2019-04-06T05:28:31.211Z,974.76
2019-04-06T05:29:33.055Z,974.71
2019-04-06T05:30:30.872Z,974.72
2019-04-06T05:31:30.691Z,974.74
2019-04-06T05:32:30.621Z,974.69
2019-04-06T05:33:30.543Z,974.76
2019-04-06T05:34:30.467Z,974.76
2019-04-06T05:35:30.431Z,974.77
2019-04-06T05:36:30.332Z,974.78
2019-04-06T05:37:30.363Z,974.78
2019-04-06T05:38:30.179Z,974.80
2019-04-06T05:39:30.234Z,974.84
2019-04-06T05:40:30.047Z,974.85
2019-04-06T05:41:29.968Z,974.90
2019-04-06T05:42:29.895Z,974.87
2019-04-06T05:43:29.815Z,974.90
2019-04-06T05:44:29.749Z,974.90
2019-04-06T05:45:29.679Z,975.00
2019-04-06T05:46:29.803Z,974.97
2019-04-06T05:47:29.523Z,975.03
2019-04-06T05:48:29.453Z,975.02
2019-04-06T05:49:29.532Z,975.02
2019-04-06T05:50:29.300Z,975.04
2019-04-06T05:51:29.388Z,975.06
2019-04-06T05:52:29.201Z,975.08
2019-04-06T05:53:29.244Z,975.12
2019-04-06T05:54:29.012Z,975.10
2019-04-06T05:55:28.952Z,975.12
2019-04-06T05:56:28.876Z,975.08
2019-04-06T05:57:31.592Z,975.09
2019-04-06T05:58:28.737Z,975.13
2019-04-06T05:59:28.645Z,975.13
2019-04-06T06:00:28.862Z,975.11
2019-04-06T06:01:28.658Z,975.11
2019-04-06T06:02:28.431Z,975.12
2019-04-06T06:03:28.368Z,975.11
2019-04-06T06:04:28.292Z,975.13
2019-04-06T06:05:28.226Z,975.16
2019-04-06T06:06:28.374Z,975.13
2019-04-06T06:07:28.069Z,975.14
2019-04-06T06:08:30.394Z,975.20
2019-04-06T06:09:27.931Z,975.20
2019-04-06T06:10:27.857Z,975.19
2019-04-06T06:11:27.821Z,975.23
2019-04-06T06:12:27.698Z,975.24
2019-04-06T06:13:27.629Z,975.26
2019-04-06T06:14:27.624Z,975.29
2019-04-06T06:15:27.492Z,975.28
2019-04-06T06:16:27.417Z,975.31
2019-04-06T06:17:27.340Z,975.31
2019-04-06T06:18:27.730Z,975.32
2019-04-06T06:19:27.242Z,975.33
2019-04-06T06:20:27.134Z,975.34
2019-04-06T06:21:27.056Z,975.35
2019-04-06T06:22:27.024Z,975.39
2019-04-06T06:23:26.897Z,975.41
2019-04-06T06:24:26.830Z,975.39
2019-04-06T06:25:26.770Z,975.43
2019-04-06T06:26:26.826Z,975.40
2019-04-06T06:27:26.609Z,975.43
2019-04-06T06:28:26.537Z,975.41
2019-04-06T06:29:26.472Z,975.42
2019-04-06T06:30:26.387Z,975.43
2019-04-06T06:31:26.331Z,975.46
2019-04-06T06:32:26.259Z,975.46
2019-04-06T06:33:26.178Z,975.51
2019-04-06T06:34:26.123Z,975.48
2019-04-06T06:35:26.031Z,975.52
2019-04-06T06:36:25.956Z,975.54
2019-04-06T06:37:25.875Z,975.51
2019-04-06T06:38:25.803Z,975.59
2019-04-06T06:39:25.753Z,975.55
2019-04-06T06:40:25.674Z,975.54
2019-04-06T06:41:25.592Z,975.62
2019-04-06T06:42:25.515Z,975.61
2019-04-06T06:43:25.596Z,975.63
2019-04-06T06:44:25.577Z,975.53
2019-04-06T06:45:25.307Z,975.58
2019-04-06T06:46:25.235Z,975.58
2019-04-06T06:47:25.191Z,975.55
2019-04-06T06:48:25.073Z,975.58
2019-04-06T06:49:25.014Z,975.58
2019-04-06T06:50:24.945Z,975.58
2019-04-06T06:51:24.857Z,975.61
2019-04-06T06:52:24.789Z,975.57
2019-04-06T06:53:24.709Z,975.57
2019-04-06T06:54:24.641Z,975.56
2019-04-06T06:55:26.608Z,975.59
2019-04-06T06:56:24.512Z,975.57
2019-04-06T06:57:24.421Z,975.58
2019-04-06T06:58:25.847Z,975.55
2019-04-06T06:59:24.506Z,975.60
2019-04-06T07:00:24.215Z,975.59
2019-04-06T07:01:24.158Z,975.61
2019-04-06T07:02:24.080Z,975.60
2019-04-06T07:03:23.994Z,975.60
2019-04-06T07:04:23.975Z,975.62
2019-04-06T07:05:23.843Z,975.65
2019-04-06T07:06:23.767Z,975.68
2019-04-06T07:07:23.711Z,975.66
2019-04-06T07:08:23.682Z,975.64
2019-04-06T07:09:23.568Z,975.67
2019-04-06T07:10:23.496Z,975.65
2019-04-06T07:11:23.419Z,975.70
2019-04-06T07:12:23.406Z,975.73
2019-04-06T07:13:23.277Z,975.73
2019-04-06T07:14:23.204Z,975.72
2019-04-06T07:15:23.119Z,975.70
2019-04-06T07:16:23.045Z,975.72
2019-04-06T07:17:22.971Z,975.72
2019-04-06T07:18:22.902Z,975.77
2019-04-06T07:19:22.857Z,975.78
2019-04-06T07:20:22.767Z,975.78
2019-04-06T07:21:22.696Z,975.75
2019-04-06T07:22:22.628Z,975.70
2019-04-06T07:23:22.543Z,975.75
2019-04-06T07:24:22.467Z,975.74
2019-04-06T07:25:22.559Z,975.78
2019-04-06T07:26:22.321Z,975.72
2019-04-06T07:27:22.425Z,975.71
2019-04-06T07:28:22.293Z,975.72
2019-04-06T07:29:22.107Z,975.75
2019-04-06T07:30:22.048Z,975.69
2019-04-06T07:31:21.979Z,975.72
2019-04-06T07:32:21.906Z,975.76
2019-04-06T07:33:21.829Z,975.69
2019-04-06T07:34:21.778Z,975.71
2019-04-06T07:35:21.692Z,975.71
2019-04-06T07:36:21.605Z,975.70
2019-04-06T07:37:21.580Z,975.75
2019-04-06T07:38:21.462Z,975.71
2019-04-06T07:39:23.355Z,975.74
2019-04-06T07:40:21.326Z,975.76
2019-04-06T07:41:21.262Z,975.71
2019-04-06T07:42:21.460Z,975.73
2019-04-06T07:43:21.107Z,975.74
2019-04-06T07:44:21.047Z,975.75
2019-04-06T07:45:20.977Z,975.72
2019-04-06T07:46:20.904Z,975.73
2019-04-06T07:47:20.821Z,975.75
2019-04-06T07:48:20.907Z,975.79
2019-04-06T07:49:20.675Z,975.73
2019-04-06T07:50:20.603Z,975.78
2019-04-06T07:51:20.551Z,975.74
2019-04-06T07:52:20.476Z,975.75
2019-04-06T07:53:20.514Z,975.78
2019-04-06T07:54:20.319Z,975.77
2019-04-06T07:55:20.268Z,975.77
2019-04-06T07:56:20.706Z,975.78
2019-04-06T07:57:20.126Z,975.79
2019-04-06T07:58:20.059Z,975.80
2019-04-06T07:59:20.163Z,975.81
2019-04-06T08:00:19.903Z,975.80
2019-04-06T08:01:19.849Z,975.77
2019-04-06T08:02:19.781Z,975.77
2019-04-06T08:03:19.695Z,975.82
2019-04-06T08:04:19.624Z,975.81
2019-04-06T08:05:19.551Z,975.80
2019-04-06T08:06:19.477Z,975.78
2019-04-06T08:07:19.424Z,975.80
2019-04-06T08:08:19.349Z,975.75
2019-04-06T08:09:19.287Z,975.76
2019-04-06T08:10:19.212Z,975.78
2019-04-06T08:11:19.180Z,975.83
2019-04-06T08:12:19.059Z,975.77
2019-04-06T08:13:18.993Z,975.75
2019-04-06T08:14:18.923Z,975.80
2019-04-06T08:15:18.871Z,975.78
2019-04-06T08:16:19.075Z,975.74
2019-04-06T08:17:18.712Z,975.73
2019-04-06T08:18:18.645Z,975.79
2019-04-06T08:19:18.594Z,975.76
2019-04-06T08:20:18.514Z,975.80
2019-04-06T08:21:19.708Z,975.75
2019-04-06T08:22:18.384Z,975.73
2019-04-06T08:23:18.299Z,975.72
2019-04-06T08:24:18.305Z,975.75
2019-04-06T08:25:18.178Z,975.81
2019-04-06T08:26:18.099Z,975.77
2019-04-06T08:27:18.025Z,975.78
2019-04-06T08:28:17.963Z,975.79
2019-04-06T08:29:17.883Z,975.73
2019-04-06T08:30:18.037Z,975.81
2019-04-06T08:31:17.759Z,975.84
2019-04-06T08:32:17.690Z,975.82
2019-04-06T08:33:17.605Z,975.79
2019-04-06T08:34:17.539Z,975.76
2019-04-06T08:35:25.084Z,975.73
2019-04-06T08:36:17.419Z,975.79
2019-04-06T08:37:17.338Z,975.79
2019-04-06T08:38:17.276Z,975.76
2019-04-06T08:39:17.193Z,975.83
2019-04-06T08:40:17.129Z,975.74
2019-04-06T08:41:17.112Z,975.77
2019-04-06T08:42:16.987Z,975.74
2019-04-06T08:43:16.934Z,975.81
2019-04-06T08:44:16.861Z,975.89
2019-04-06T08:45:16.788Z,975.85
2019-04-06T08:46:16.724Z,975.88
2019-04-06T08:47:16.640Z,975.84
2019-04-06T08:48:16.572Z,975.91
2019-04-06T08:49:16.752Z,975.87
2019-04-06T08:50:16.451Z,975.86
2019-04-06T08:51:16.590Z,975.83
2019-04-06T08:52:16.504Z,975.91
2019-04-06T08:53:16.312Z,975.94
2019-04-06T08:54:16.383Z,975.86
2019-04-06T08:55:16.108Z,975.86
2019-04-06T08:56:16.036Z,975.88
2019-04-06T08:57:15.961Z,975.90
2019-04-06T08:58:15.883Z,975.90
2019-04-06T08:59:15.952Z,975.94
2019-04-06T09:00:15.773Z,975.91
2019-04-06T09:01:15.686Z,975.94
2019-04-06T09:02:15.622Z,975.91
2019-04-06T09:03:15.540Z,975.88
2019-04-06T09:04:15.496Z,975.94
2019-04-06T09:05:15.412Z,975.86
2019-04-06T09:06:15.348Z,975.84
2019-04-06T09:07:15.263Z,975.90
2019-04-06T09:08:15.195Z,975.91
2019-04-06T09:09:15.199Z,975.92
2019-04-06T09:10:15.057Z,975.86
2019-04-06T09:11:15.001Z,975.95
2019-04-06T09:12:15.086Z,975.82
2019-04-06T09:13:14.862Z,975.94
2019-04-06T09:14:14.796Z,975.86
2019-04-06T09:15:14.724Z,975.84
2019-04-06T09:16:14.643Z,975.87
2019-04-06T09:17:14.579Z,975.82
2019-04-06T09:18:14.508Z,975.79
2019-04-06T09:19:14.455Z,975.88
2019-04-06T09:20:14.373Z,975.86
2019-04-06T09:21:14.293Z,975.88
2019-04-06T09:22:14.227Z,975.88
2019-04-06T09:23:14.383Z,975.91
2019-04-06T09:24:14.274Z,975.93
2019-04-06T09:25:14.031Z,975.93
2019-04-06T09:26:14.129Z,975.93
2019-04-06T09:27:13.880Z,975.94
2019-04-06T09:28:14.013Z,975.98
2019-04-06T09:29:23.066Z,975.99
2019-04-06T09:30:13.671Z,975.98
2019-04-06T09:31:13.617Z,975.95
2019-04-06T09:32:13.550Z,975.90
2019-04-06T09:33:13.474Z,975.91
2019-04-06T09:34:13.414Z,975.97
2019-04-06T09:35:13.332Z,975.97
2019-04-06T09:36:13.259Z,975.94
2019-04-06T09:37:13.216Z,975.99
2019-04-06T09:38:13.128Z,976.00
2019-04-06T09:39:13.047Z,976.08
2019-04-06T09:40:12.984Z,976.01
2019-04-06T09:41:12.913Z,975.99
2019-04-06T09:42:12.841Z,976.04
2019-04-06T09:43:13.291Z,976.10
2019-04-06T09:44:12.812Z,976.07
2019-04-06T09:45:12.651Z,975.79
2019-04-06T09:46:12.580Z,975.96
2019-04-06T09:47:12.503Z,976.06
2019-04-06T09:48:12.439Z,976.08
2019-04-06T09:49:12.390Z,976.05
2019-04-06T09:50:12.294Z,976.00
2019-04-06T09:51:12.230Z,976.06
2019-04-06T09:52:12.259Z,976.03
2019-04-06T09:53:12.085Z,976.00
2019-04-06T09:54:12.012Z,976.04
2019-04-06T09:55:12.000Z,975.98
2019-04-06T09:56:11.924Z,976.09
2019-04-06T09:57:11.831Z,976.11
2019-04-06T09:58:11.761Z,976.06
2019-04-06T09:59:11.674Z,975.98
2019-04-06T10:00:11.606Z,976.06
2019-04-06T10:01:11.545Z,976.08
2019-04-06T10:02:11.481Z,975.97
2019-04-06T10:03:11.405Z,976.09
2019-04-06T10:04:11.330Z,976.03
2019-04-06T10:05:11.259Z,976.06
2019-04-06T10:06:11.199Z,976.03
2019-04-06T10:07:11.138Z,976.07
2019-04-06T10:08:11.281Z,976.10
2019-04-06T10:09:10.986Z,976.01
2019-04-06T10:10:10.918Z,976.05
2019-04-06T10:11:10.863Z,976.00
2019-04-06T10:12:10.793Z,976.05
2019-04-06T10:13:10.951Z,975.94
2019-04-06T10:14:10.663Z,976.07
2019-04-06T10:15:10.590Z,976.02
2019-04-06T10:16:10.510Z,976.14
2019-04-06T10:17:10.445Z,976.04
2019-04-06T10:18:10.633Z,976.07
2019-04-06T10:19:10.314Z,976.03
2019-04-06T10:20:10.246Z,976.09
2019-04-06T10:21:10.181Z,976.08
2019-04-06T10:22:10.113Z,976.06
2019-04-06T10:23:10.030Z,976.05
2019-04-06T10:24:09.964Z,976.06
2019-04-06T10:25:11.322Z,976.13
2019-04-06T10:26:09.839Z,976.14
2019-04-06T10:27:09.768Z,976.14
2019-04-06T10:28:09.724Z,976.11
2019-04-06T10:29:09.626Z,976.11
2019-04-06T10:30:09.554Z,976.17
2019-04-06T10:31:09.507Z,976.07
2019-04-06T10:32:09.434Z,976.15
2019-04-06T10:33:09.350Z,976.03
2019-04-06T10:34:09.310Z,976.13
2019-04-06T10:35:09.293Z,976.12
2019-04-06T10:36:09.168Z,976.12
2019-04-06T10:37:09.091Z,976.18
2019-04-06T10:38:09.091Z,976.19
2019-04-06T10:39:08.943Z,976.15
2019-04-06T10:40:08.884Z,976.19
2019-04-06T10:41:08.831Z,976.16
2019-04-06T10:42:08.751Z,976.24
2019-04-06T10:43:08.701Z,976.04
2019-04-06T10:44:08.601Z,976.24
2019-04-06T10:45:08.533Z,976.20
2019-04-06T10:46:08.467Z,976.16
2019-04-06T10:47:08.418Z,976.18
2019-04-06T10:48:08.549Z,976.23
2019-04-06T10:49:08.285Z,976.26
2019-04-06T10:50:08.202Z,976.27
2019-04-06T10:51:08.310Z,976.17
2019-04-06T10:52:08.196Z,976.24
2019-04-06T10:53:07.982Z,976.29
2019-04-06T10:54:07.918Z,976.22
2019-04-06T10:55:08.207Z,976.24
2019-04-06T10:56:08.078Z,976.27
2019-04-06T10:57:07.801Z,976.28
2019-04-06T10:58:07.669Z,976.30
2019-04-06T10:59:07.585Z,976.29
2019-04-06T11:00:07.515Z,976.37
2019-04-06T11:01:07.467Z,976.28
2019-04-06T11:02:07.381Z,976.28
2019-04-06T11:03:07.296Z,976.29
2019-04-06T11:04:07.226Z,976.32
2019-04-06T11:05:07.169Z,976.23
2019-04-06T11:06:07.109Z,976.26
2019-04-06T11:07:07.024Z,976.26
2019-04-06T11:08:07.047Z,976.26
2019-04-06T11:09:06.895Z,976.24
2019-04-06T11:10:06.821Z,976.22
2019-04-06T11:11:06.760Z,976.22
2019-04-06T11:12:06.707Z,976.29
2019-04-06T11:13:06.617Z,976.29
2019-04-06T11:14:06.544Z,976.31
2019-04-06T11:15:06.487Z,976.38
2019-04-06T11:16:06.415Z,976.34
2019-04-06T11:17:06.346Z,976.30
2019-04-06T11:18:06.284Z,976.33
2019-04-06T11:19:06.200Z,976.33
2019-04-06T11:20:06.142Z,976.32
2019-04-06T11:21:06.065Z,976.27
2019-04-06T11:22:05.996Z,976.27
2019-04-06T11:23:05.940Z,976.24
2019-04-06T11:24:06.157Z,976.33
2019-04-06T11:25:06.003Z,976.28
2019-04-06T11:26:06.008Z,976.24
2019-04-06T11:27:05.904Z,976.25
2019-04-06T11:28:05.585Z,976.27
2019-04-06T11:29:05.535Z,976.29
2019-04-06T11:30:13.023Z,976.35
2019-04-06T11:31:05.380Z,976.24
2019-04-06T11:32:05.313Z,976.25
2019-04-06T11:33:05.280Z,976.25
2019-04-06T11:34:05.171Z,976.30
2019-04-06T11:35:05.115Z,976.26
2019-04-06T11:36:05.046Z,976.25
2019-04-06T11:37:04.981Z,976.23
2019-04-06T11:38:04.916Z,976.24
2019-04-06T11:39:04.833Z,976.16
2019-04-06T11:40:04.767Z,976.20
2019-04-06T11:41:04.707Z,976.16
2019-04-06T11:42:04.634Z,976.20
2019-04-06T11:43:04.577Z,976.18
2019-04-06T11:44:04.503Z,976.27
2019-04-06T11:45:04.420Z,976.16
2019-04-06T11:46:04.358Z,976.16
2019-04-06T11:47:04.517Z,976.17
2019-04-06T11:48:04.282Z,976.19
2019-04-06T11:49:04.426Z,976.20
2019-04-06T11:50:04.096Z,976.23
2019-04-06T11:51:04.011Z,976.22
2019-04-06T11:52:03.942Z,976.15
2019-04-06T11:53:03.872Z,976.15
2019-04-06T11:54:03.834Z,976.07
2019-04-06T11:55:03.789Z,976.09
2019-04-06T11:56:03.893Z,976.19
2019-04-06T11:57:03.612Z,976.23
2019-04-06T11:58:03.549Z,976.19
2019-04-06T11:59:03.656Z,976.17
2019-04-06T12:00:03.568Z,976.14
2019-04-06T12:01:03.340Z,976.17
2019-04-06T12:02:03.270Z,976.11
2019-04-06T12:03:03.412Z,976.14
2019-04-06T12:04:03.124Z,976.10
2019-04-06T12:05:03.047Z,976.12
2019-04-06T12:06:02.986Z,976.07
2019-04-06T12:07:03.284Z,976.10
2019-04-06T12:08:03.012Z,976.10
2019-04-06T12:09:02.810Z,976.09
2019-04-06T12:10:02.714Z,976.10
2019-04-06T12:11:03.015Z,976.10
2019-04-06T12:12:02.797Z,976.06
2019-04-06T12:13:02.517Z,976.03
2019-04-06T12:14:02.447Z,976.07
2019-04-06T12:15:02.700Z,975.99
2019-04-06T12:16:02.518Z,976.00
2019-04-06T12:17:02.308Z,975.97
2019-04-06T12:18:02.364Z,975.97
2019-04-06T12:19:02.109Z,975.96
2019-04-06T12:20:02.027Z,976.00
2019-04-06T12:21:01.956Z,975.90
2019-04-06T12:22:01.941Z,975.89
2019-04-06T12:23:02.011Z,975.87
2019-04-06T12:24:01.766Z,975.85
2019-04-06T12:25:01.701Z,975.87
2019-04-06T12:26:01.633Z,975.84
2019-04-06T12:27:01.574Z,975.82
2019-04-06T12:28:01.478Z,975.83